Terminal Aerodrome Forecast
Issued by NWS

Home | Current Version | Previous Version | Text Only | Print | Product List | Glossary On
Versions: 1 2 3 4 5 6 7 8 9 10 11 12 13 14 15 16 17
000
FTUS43 KPAH 260500
TAFCGI
TAF
KCGI 260539Z 2606/2706 34015G23KT P6SM OVC010
     FM261100 33009KT P6SM BKN025
     FM261900 21006KT P6SM SCT030=

USA.gov is the U.S. government's official web portal to all federal, state and local government web resources and services.